createdAt,value
2023-04-30T00:00:13.438Z,23.40
2023-04-30T00:05:18.225Z,21.10
2023-04-30T00:10:21.158Z,21.57
2023-04-30T00:15:24.098Z,25.10
2023-04-30T00:20:28.342Z,18.70
2023-04-30T00:25:31.254Z,20.13
2023-04-30T00:30:34.146Z,20.50
2023-04-30T00:35:39.335Z,19.50
2023-04-30T00:40:43.239Z,16.17
2023-04-30T00:45:46.173Z,12.93
2023-04-30T00:50:50.402Z,16.87
2023-04-30T00:55:54.332Z,21.43
2023-04-30T01:00:57.468Z,15.90
2023-04-30T01:06:01.755Z,15.83
2023-04-30T01:11:17.466Z,18.50
2023-04-30T01:16:24.439Z,19.53
2023-04-30T01:21:30.787Z,19.70
2023-04-30T01:26:50.031Z,19.30
2023-04-30T01:31:54.777Z,20.50
2023-04-30T01:37:12.953Z,22.13
2023-04-30T01:42:21.741Z,19.77
2023-04-30T01:47:35.163Z,17.37
2023-04-30T01:52:41.772Z,19.73
2023-04-30T01:57:58.920Z,16.27
2023-04-30T02:03:04.023Z,15.80
2023-04-30T02:08:07.895Z,13.27
2023-04-30T02:13:10.841Z,11.63
2023-04-30T02:18:15.093Z,13.00
2023-04-30T02:23:18.060Z,13.03
2023-04-30T02:28:20.932Z,15.23
2023-04-30T02:33:25.304Z,15.73
2023-04-30T02:38:28.297Z,14.53
2023-04-30T02:43:31.220Z,13.07
2023-04-30T02:48:35.825Z,14.37
2023-04-30T02:53:38.940Z,13.83
2023-04-30T02:58:42.041Z,12.70
2023-04-30T03:03:46.367Z,13.40
2023-04-30T03:08:49.270Z,10.53
2023-04-30T03:13:52.370Z,12.10
2023-04-30T03:18:56.662Z,14.60
2023-04-30T03:23:59.546Z,10.10
2023-04-30T03:29:02.411Z,9.40
2023-04-30T03:34:06.644Z,7.70
2023-04-30T03:39:10.502Z,9.60
2023-04-30T03:44:16.004Z,8.70
2023-04-30T03:49:20.419Z,9.87
2023-04-30T03:54:23.316Z,12.33
2023-04-30T03:59:26.631Z,7.37
2023-04-30T04:04:31.645Z,8.80
2023-04-30T04:09:34.688Z,10.97
2023-04-30T04:14:39.878Z,12.17
2023-04-30T04:19:44.157Z,9.13
2023-04-30T04:24:48.005Z,9.70
2023-04-30T04:29:57.021Z,7.57
2023-04-30T04:35:01.592Z,11.97
2023-04-30T04:40:06.064Z,9.23
2023-04-30T04:45:10.199Z,7.03
2023-04-30T04:50:16.246Z,10.30
2023-04-30T04:55:19.292Z,8.43
2023-04-30T05:00:23.316Z,8.90
2023-04-30T05:05:27.602Z,7.43
2023-04-30T05:10:30.545Z,9.23
2023-04-30T05:15:33.717Z,7.90
2023-04-30T05:20:37.980Z,6.83
2023-04-30T05:25:40.871Z,11.40
2023-04-30T05:30:43.755Z,10.40
2023-04-30T05:35:48.066Z,12.13
2023-04-30T05:40:51.025Z,9.23
2023-04-30T05:45:54.026Z,13.33
2023-04-30T05:50:58.328Z,8.10
2023-04-30T05:56:01.251Z,9.63
2023-04-30T06:01:05.330Z,7.97
2023-04-30T06:06:09.940Z,8.00
2023-04-30T06:11:13.269Z,15.70
2023-04-30T06:16:16.258Z,9.13
2023-04-30T06:21:20.581Z,7.17
2023-04-30T06:26:23.482Z,11.57
2023-04-30T06:31:26.462Z,11.07
2023-04-30T06:36:31.492Z,8.50
2023-04-30T06:41:34.539Z,7.43
2023-04-30T06:46:43.651Z,8.17
2023-04-30T06:51:48.224Z,9.67
2023-04-30T06:56:51.115Z,9.33
2023-04-30T07:01:54.105Z,11.33
2023-04-30T07:06:58.423Z,11.10
2023-04-30T07:12:01.622Z,7.80
2023-04-30T07:17:04.566Z,8.40
2023-04-30T07:22:08.867Z,6.90
2023-04-30T07:27:11.778Z,9.10
2023-04-30T07:32:15.035Z,7.30
2023-04-30T07:37:19.352Z,8.93
2023-04-30T07:42:22.258Z,10.40
2023-04-30T07:47:25.499Z,9.20
2023-04-30T07:52:29.788Z,6.50
2023-04-30T07:57:32.727Z,7.57
2023-04-30T08:02:37.396Z,10.27
2023-04-30T08:07:42.147Z,10.80
2023-04-30T08:12:45.174Z,12.10
2023-04-30T08:17:48.535Z,13.47
2023-04-30T08:22:52.952Z,9.27
2023-04-30T08:27:56.001Z,12.37
2023-04-30T08:32:59.277Z,11.40
2023-04-30T08:38:03.626Z,10.17
2023-04-30T08:43:07.818Z,9.50
2023-04-30T08:48:14.014Z,9.43
2023-04-30T08:53:21.572Z,8.60
2023-04-30T08:58:24.593Z,12.50
2023-04-30T09:03:28.397Z,10.67
2023-04-30T09:08:46.983Z,9.80
2023-04-30T09:13:52.663Z,11.27
2023-04-30T09:18:56.811Z,7.03
2023-04-30T09:24:02.828Z,9.13
2023-04-30T09:29:08.850Z,12.93
2023-04-30T09:34:12.042Z,9.20
2023-04-30T09:39:17.607Z,6.37
2023-04-30T09:44:30.160Z,5.63
2023-04-30T09:49:33.047Z,6.60
2023-04-30T09:54:38.259Z,13.03
2023-04-30T09:59:44.799Z,10.17
2023-04-30T10:04:55.063Z,5.30
2023-04-30T10:10:04.914Z,7.40
2023-04-30T10:15:14.381Z,4.40
2023-04-30T10:20:20.124Z,7.03
2023-04-30T10:25:28.165Z,5.30
2023-04-30T10:30:32.792Z,4.67
2023-04-30T10:35:44.762Z,6.93
2023-04-30T10:40:49.807Z,4.83
2023-04-30T10:45:53.109Z,6.23
2023-04-30T10:50:58.515Z,10.20
2023-04-30T10:56:06.903Z,7.47
2023-04-30T11:01:13.684Z,7.13
2023-04-30T11:06:20.409Z,4.60
2023-04-30T11:11:24.860Z,8.40
2023-04-30T11:16:30.848Z,6.50
2023-04-30T11:21:33.791Z,7.10
2023-04-30T11:27:05.886Z,5.97
2023-04-30T11:32:09.280Z,10.57
2023-04-30T11:37:14.770Z,8.23
2023-04-30T11:42:19.834Z,3.80
2023-04-30T11:47:22.812Z,4.10
2023-04-30T11:52:26.846Z,4.53
2023-04-30T11:57:41.778Z,6.40
2023-04-30T12:02:47.161Z,8.17
2023-04-30T12:07:52.038Z,7.43
2023-04-30T12:12:56.324Z,6.33
2023-04-30T12:18:00.550Z,8.37
2023-04-30T12:23:03.616Z,5.50
2023-04-30T12:28:07.967Z,7.23
2023-04-30T12:33:11.947Z,7.60
2023-04-30T12:38:18.708Z,5.07
2023-04-30T12:43:22.976Z,5.90
2023-04-30T12:48:26.991Z,6.03
2023-04-30T12:53:30.390Z,5.90
2023-04-30T12:58:35.355Z,5.13
2023-04-30T13:03:39.860Z,4.67
2023-04-30T13:08:57.140Z,4.40
2023-04-30T13:14:02.499Z,6.03
2023-04-30T13:19:05.583Z,5.73
2023-04-30T13:24:08.526Z,5.30
2023-04-30T13:29:12.972Z,6.10
2023-04-30T13:34:15.995Z,8.03
2023-04-30T13:39:19.692Z,3.57
2023-04-30T13:44:24.277Z,4.80
2023-04-30T13:49:27.183Z,5.60
2023-04-30T13:54:30.078Z,5.33
2023-04-30T13:59:34.727Z,4.10
2023-04-30T14:04:38.154Z,6.50
2023-04-30T14:09:41.106Z,3.43
2023-04-30T14:14:45.560Z,7.73
2023-04-30T14:19:48.463Z,5.80
2023-04-30T14:24:51.557Z,6.53
2023-04-30T14:29:56.218Z,3.63
2023-04-30T14:34:59.373Z,4.13
2023-04-30T14:40:02.234Z,5.77
2023-04-30T14:45:08.163Z,2.93
2023-04-30T14:50:11.526Z,4.90
2023-04-30T14:55:14.597Z,5.23
2023-04-30T15:00:19.150Z,4.30
2023-04-30T15:05:22.239Z,5.43
2023-04-30T15:10:25.159Z,4.20
2023-04-30T15:15:29.764Z,4.10
2023-04-30T15:20:32.857Z,4.57
2023-04-30T15:25:35.876Z,3.43
2023-04-30T15:30:40.204Z,6.43
2023-04-30T15:35:43.086Z,4.10
2023-04-30T15:40:45.992Z,6.27
2023-04-30T15:45:50.282Z,4.37
2023-04-30T15:50:53.187Z,5.53
2023-04-30T15:55:57.162Z,5.20
2023-04-30T16:01:01.975Z,3.97
2023-04-30T16:06:05.112Z,5.60
2023-04-30T16:11:08.179Z,4.43
2023-04-30T16:16:12.428Z,5.40
2023-04-30T16:21:15.317Z,7.37
2023-04-30T16:26:18.968Z,6.93
2023-04-30T16:31:23.406Z,4.57
2023-04-30T16:36:28.045Z,4.63
2023-04-30T16:41:31.072Z,4.23
2023-04-30T16:46:36.153Z,3.00
2023-04-30T16:51:39.191Z,3.27
2023-04-30T16:56:42.104Z,8.97
2023-04-30T17:01:46.736Z,5.70
2023-04-30T17:06:49.894Z,6.83
2023-04-30T17:11:52.861Z,3.40
2023-04-30T17:16:57.415Z,6.77
2023-04-30T17:22:00.357Z,3.30
2023-04-30T17:27:05.589Z,3.80
2023-04-30T17:32:11.074Z,5.63
2023-04-30T17:37:13.973Z,7.10
2023-04-30T17:42:17.937Z,6.43
2023-04-30T17:47:22.967Z,6.87
2023-04-30T17:52:26.173Z,7.20
2023-04-30T17:57:29.189Z,8.57
2023-04-30T18:02:33.549Z,12.70
2023-04-30T18:07:36.672Z,25.13
2023-04-30T18:12:39.778Z,22.37
2023-04-30T18:17:44.073Z,10.67
2023-04-30T18:22:46.935Z,44.53
2023-04-30T18:27:49.886Z,76.93
2023-04-30T18:32:54.129Z,32.17
2023-04-30T18:37:57.522Z,21.17
2023-04-30T18:43:00.457Z,21.57
2023-04-30T18:48:05.206Z,17.60
2023-04-30T18:53:08.185Z,9.63
2023-04-30T18:58:11.102Z,10.37
2023-04-30T19:03:15.525Z,9.20
2023-04-30T19:08:18.475Z,12.90
2023-04-30T19:13:21.531Z,10.10
2023-04-30T19:18:25.813Z,11.70
2023-04-30T19:23:30.219Z,10.87
2023-04-30T19:28:33.234Z,17.03
2023-04-30T19:33:39.527Z,13.00
2023-04-30T19:38:42.903Z,13.63
2023-04-30T19:43:49.141Z,22.90
2023-04-30T19:48:53.770Z,12.40
2023-04-30T19:53:58.974Z,14.47
2023-04-30T19:59:01.850Z,18.43
2023-04-30T20:04:06.934Z,24.70
2023-04-30T20:09:10.003Z,42.43
2023-04-30T20:14:12.921Z,45.70
2023-04-30T20:19:17.142Z,42.47
2023-04-30T20:24:21.624Z,36.37
2023-04-30T20:29:24.592Z,34.43
2023-04-30T20:34:29.103Z,27.53
2023-04-30T20:39:32.111Z,36.07
2023-04-30T20:44:35.070Z,42.67
2023-04-30T20:49:39.570Z,42.30
2023-04-30T20:54:42.849Z,42.17
2023-04-30T20:59:45.845Z,36.97
2023-04-30T21:04:50.144Z,45.17
2023-04-30T21:09:53.246Z,42.37
2023-04-30T21:14:56.409Z,39.50
2023-04-30T21:20:00.958Z,49.70
2023-04-30T21:25:03.889Z,55.60
2023-04-30T21:30:08.392Z,56.83
2023-04-30T21:35:12.784Z,54.87
2023-04-30T21:40:15.781Z,45.10
2023-04-30T21:45:19.783Z,38.70
2023-04-30T21:50:24.538Z,38.73
2023-04-30T21:55:27.734Z,35.13
2023-04-30T22:00:30.683Z,32.27
2023-04-30T22:05:34.975Z,36.40
2023-04-30T22:10:37.893Z,29.83
2023-04-30T22:15:48.266Z,33.17
2023-04-30T22:20:53.827Z,35.33
2023-04-30T22:25:56.701Z,38.10
2023-04-30T22:31:00.007Z,32.50
2023-04-30T22:36:05.151Z,34.80
2023-04-30T22:41:08.549Z,29.33
2023-04-30T22:46:11.694Z,37.57
2023-04-30T22:51:16.068Z,38.90
2023-04-30T22:56:18.997Z,33.73
2023-04-30T23:01:22.008Z,33.03
2023-04-30T23:06:27.412Z,28.20
2023-04-30T23:11:30.418Z,30.30
2023-04-30T23:16:33.494Z,27.00
2023-04-30T23:21:37.811Z,29.87
2023-04-30T23:26:41.360Z,35.00
2023-04-30T23:31:44.257Z,25.17
2023-04-30T23:36:48.567Z,32.50
2023-04-30T23:41:52.156Z,27.07
2023-04-30T23:46:55.958Z,27.03
2023-04-30T23:52:00.301Z,31.90
2023-04-30T23:57:03.324Z,30.67
